Time;durP1;ratioP1;P1;durP2;ratioP2;P2;SDS_P1;SDS_P2;PMS_P1;PMS_P2;Temp;Humidity;BMP_temperature;BMP_pressure;BME280_temperature;BME280_humidity;BME280_pressure;Samples;Min_cycle;Max_cycle;Signal;HPM_P1;HPM_P2
2021/04/09 00:02:12;;;;;;;10.27;9.77;;;25.40;99.90;;;;;;5072913;28;20032;-59
2021/04/09 00:04:39;;;;;;;10.48;9.68;;;25.30;99.90;;;;;;5072670;28;20093;-59
2021/04/09 00:07:07;;;;;;;10.50;9.90;;;25.60;99.90;;;;;;5072902;28;20097;-58
2021/04/09 00:09:36;;;;;;;9.88;9.27;;;25.80;99.90;;;;;;5072959;28;20024;-59
2021/04/09 00:12:03;;;;;;;9.60;9.10;;;26.10;99.90;;;;;;5072935;28;20031;-60
2021/04/09 00:14:31;;;;;;;9.85;9.27;;;26.30;99.90;;;;;;5072655;28;20024;-59
2021/04/09 00:16:58;;;;;;;9.23;8.55;;;26.60;99.90;;;;;;5072713;28;20025;-59
2021/04/09 00:19:29;;;;;;;9.68;9.02;;;26.90;99.90;;;;;;5072694;28;20021;-59
2021/04/09 00:21:56;;;;;;;9.45;8.85;;;26.90;99.90;;;;;;5073572;28;20046;-60
2021/04/09 00:24:23;;;;;;;9.40;8.85;;;26.90;99.90;;;;;;5072901;28;20039;-60
2021/04/09 00:26:51;;;;;;;9.55;8.85;;;26.60;99.90;;;;;;5072736;28;20070;-60
2021/04/09 00:29:19;;;;;;;9.77;9.27;;;26.40;99.90;;;;;;5072714;28;20025;-60
2021/04/09 00:31:46;;;;;;;9.20;8.75;;;26.40;99.90;;;;;;5072570;28;20430;-61
2021/04/09 00:34:13;;;;;;;9.40;8.80;;;26.30;99.90;;;;;;5072421;28;20377;-61
2021/04/09 00:36:41;;;;;;;9.40;8.90;;;26.30;99.90;;;;;;5072473;28;20052;-60
2021/04/09 00:39:11;;;;;;;9.63;9.13;;;26.20;99.90;;;;;;5072526;28;20048;-60
2021/04/09 00:41:40;;;;;;;9.18;8.55;;;26.10;99.90;;;;;;5072528;28;20033;-60
2021/04/09 00:44:10;;;;;;;9.65;9.00;;;26.10;99.90;;;;;;5072554;28;20473;-60
2021/04/09 00:46:37;;;;;;;9.40;8.90;;;26.00;99.90;;;;;;5074685;28;20103;-60
2021/04/09 00:49:05;;;;;;;9.30;8.70;;;26.00;99.90;;;;;;5076466;28;20086;-60
2021/04/09 00:51:33;;;;;;;9.07;8.57;;;25.90;99.90;;;;;;5076573;28;20089;-60
2021/04/09 00:54:03;;;;;;;9.18;8.70;;;26.00;99.90;;;;;;5076521;28;20373;-60
2021/04/09 00:56:31;;;;;;;9.10;8.60;;;26.30;99.70;;;;;;5076458;28;20031;-60
2021/04/09 00:59:01;;;;;;;9.30;8.60;;;26.50;99.90;;;;;;5076365;28;20122;-61
2021/04/09 01:01:28;;;;;;;9.15;8.45;;;26.50;99.00;;;;;;5076371;28;20028;-60
2021/04/09 01:03:56;;;;;;;8.73;8.23;;;26.60;98.50;;;;;;5058028;28;20045;-61
2021/04/09 01:06:24;;;;;;;9.20;8.60;;;26.60;98.20;;;;;;5076209;28;20562;-60
2021/04/09 01:08:52;;;;;;;9.02;8.50;;;26.40;99.00;;;;;;5076098;28;20071;-60
2021/04/09 01:11:19;;;;;;;9.20;8.60;;;26.50;99.70;;;;;;5075943;28;20020;-59
2021/04/09 01:13:47;;;;;;;8.77;8.32;;;26.50;98.00;;;;;;5075863;28;20484;-60
2021/04/09 01:16:32;;;;;;;8.80;8.30;;;26.30;98.70;;;;;;5075978;28;20024;-60
2021/04/09 01:18:59;;;;;;;8.98;8.38;;;26.40;99.60;;;;;;5076146;28;20028;-61
2021/04/09 01:21:49;;;;;;;9.18;8.20;;;26.50;99.40;;;;;;5075911;28;20028;-60
2021/04/09 01:24:34;;;;;;;8.50;8.00;;;26.50;98.80;;;;;;5076011;28;20025;-60
2021/04/09 01:27:10;;;;;;;8.20;7.60;;;26.50;98.90;;;;;;5075887;28;20028;-60
2021/04/09 01:30:05;;;;;;;7.90;7.50;;;26.40;98.60;;;;;;5075700;28;20058;-60
2021/04/09 01:32:32;;;;;;;8.15;7.65;;;26.50;99.10;;;;;;5075812;28;20020;-60
2021/04/09 01:35:11;;;;;;;8.10;7.40;;;26.30;98.70;;;;;;5075528;28;20531;-60
2021/04/09 01:38:02;;;;;;;7.90;7.40;;;26.20;98.50;;;;;;5075774;28;20020;-60
2021/04/09 01:40:38;;;;;;;7.70;7.30;;;26.20;99.20;;;;;;5075452;28;20386;-60
2021/04/09 01:43:09;;;;;;;7.90;7.40;;;26.00;98.40;;;;;;5075433;28;20036;-59
2021/04/09 01:45:37;;;;;;;8.27;7.72;;;25.80;98.60;;;;;;5075571;28;20131;-59
2021/04/09 01:48:08;;;;;;;8.80;8.30;;;25.70;99.40;;;;;;5075347;28;20107;-60
2021/04/09 01:50:37;;;;;;;8.55;8.05;;;25.60;99.80;;;;;;5075332;28;20436;-60
2021/04/09 01:53:06;;;;;;;8.85;8.18;;;25.40;99.50;;;;;;5075197;28;20027;-59
2021/04/09 01:55:39;;;;;;;8.07;7.60;;;25.30;99.90;;;;;;5075155;28;20039;-60
2021/04/09 01:58:10;;;;;;;8.57;7.90;;;25.30;99.80;;;;;;5074547;28;20035;-60
2021/04/09 02:00:38;;;;;;;8.77;8.18;;;25.20;99.90;;;;;;5075013;28;20052;-60
2021/04/09 02:03:07;;;;;;;8.65;8.05;;;25.10;99.90;;;;;;5075044;28;20048;-60
2021/04/09 02:05:35;;;;;;;8.10;7.50;;;25.10;99.90;;;;;;5075110;28;20055;-60
2021/04/09 02:08:04;;;;;;;8.23;7.65;;;25.10;99.90;;;;;;5075252;28;20043;-60
2021/04/09 02:10:32;;;;;;;8.00;7.50;;;25.10;99.90;;;;;;5075085;28;20028;-59
2021/04/09 02:13:01;;;;;;;8.20;7.70;;;25.20;99.90;;;;;;5057132;28;20033;-59
2021/04/09 02:15:29;;;;;;;8.55;8.05;;;25.20;99.90;;;;;;5074884;28;20039;-59
2021/04/09 02:17:57;;;;;;;8.38;7.88;;;25.20;99.90;;;;;;5074975;28;20021;-60
2021/04/09 02:20:24;;;;;;;8.70;8.00;;;25.20;99.90;;;;;;5074798;28;20029;-60
2021/04/09 02:22:53;;;;;;;8.80;8.15;;;25.20;99.90;;;;;;5074873;28;20024;-60
2021/04/09 02:25:22;;;;;;;8.52;7.90;;;25.20;99.90;;;;;;5074707;28;20031;-60
2021/04/09 02:27:53;;;;;;;9.38;8.50;;;25.20;99.90;;;;;;5074748;28;20069;-60
2021/04/09 02:30:22;;;;;;;8.80;8.25;;;25.20;99.90;;;;;;5074810;28;20037;-61
2021/04/09 02:32:50;;;;;;;9.52;8.73;;;25.10;99.90;;;;;;5074681;28;20017;-60
2021/04/09 02:35:17;;;;;;;8.75;8.25;;;25.10;99.90;;;;;;5074491;28;20021;-60
2021/04/09 02:37:49;;;;;;;9.02;8.52;;;25.00;99.90;;;;;;5074512;28;20020;-60
2021/04/09 02:40:20;;;;;;;9.00;8.40;;;25.00;99.90;;;;;;5074539;28;20024;-60
2021/04/09 02:42:49;;;;;;;8.93;8.23;;;25.00;99.90;;;;;;5074449;28;20020;-60
2021/04/09 02:45:19;;;;;;;8.60;8.13;;;25.00;99.90;;;;;;5074386;28;20021;-59
2021/04/09 02:47:48;;;;;;;8.60;8.00;;;25.10;99.90;;;;;;5074571;28;20261;-59
2021/04/09 02:50:33;;;;;;;7.97;7.57;;;25.30;99.90;;;;;;5074282;28;20028;-59
2021/04/09 02:53:26;;;;;;;8.45;7.82;;;25.70;99.90;;;;;;5074423;28;20380;-59
2021/04/09 02:55:53;;;;;;;8.73;8.13;;;25.70;99.80;;;;;;5074083;28;20078;-59
2021/04/09 02:58:22;;;;;;;8.18;7.47;;;25.70;99.90;;;;;;5074033;28;20020;-59
2021/04/09 03:00:51;;;;;;;8.75;8.10;;;25.70;99.90;;;;;;5074145;28;20032;-60
2021/04/09 03:03:19;;;;;;;8.13;7.53;;;25.80;99.90;;;;;;5073694;28;20043;-59
2021/04/09 03:05:50;;;;;;;8.10;7.50;;;25.70;99.90;;;;;;5073993;28;20020;-60
2021/04/09 03:08:19;;;;;;;8.20;7.50;;;25.60;99.70;;;;;;5073778;28;20024;-59
2021/04/09 03:10:47;;;;;;;7.88;7.28;;;25.70;99.90;;;;;;5072857;28;20025;-60
2021/04/09 03:13:14;;;;;;;8.20;7.50;;;25.50;99.90;;;;;;5073735;28;20025;-61
2021/04/09 03:15:50;;;;;;;8.32;7.57;;;25.40;99.90;;;;;;5073764;28;20060;-60
2021/04/09 03:18:19;;;;;;;7.13;6.63;;;25.20;99.50;;;;;;5073744;28;20027;-60
2021/04/09 03:20:46;;;;;;;7.93;7.13;;;25.20;99.90;;;;;;5073652;28;20070;-60
2021/04/09 03:23:14;;;;;;;8.77;8.07;;;25.20;99.90;;;;;;5073475;28;20043;-61
2021/04/09 03:25:41;;;;;;;8.82;8.25;;;25.40;99.90;;;;;;5073496;28;20024;-60
2021/04/09 03:28:09;;;;;;;9.30;8.50;;;25.70;99.90;;;;;;5073799;28;20032;-60
2021/04/09 03:30:36;;;;;;;8.23;7.82;;;25.80;99.90;;;;;;5073456;28;20035;-60
2021/04/09 03:33:04;;;;;;;8.55;7.95;;;25.80;99.90;;;;;;5073522;28;20028;-60
2021/04/09 03:35:32;;;;;;;8.52;7.95;;;25.70;99.90;;;;;;5055457;28;20078;-60
2021/04/09 03:37:59;;;;;;;9.00;8.30;;;25.50;99.60;;;;;;5073452;28;20020;-60
2021/04/09 03:40:34;;;;;;;8.98;8.18;;;25.70;99.90;;;;;;5090400;27;20914;-60
2021/04/09 03:43:01;;;;;;;8.95;8.23;;;26.00;99.90;;;;;;5090294;28;20020;-61
2021/04/09 03:45:29;;;;;;;8.60;8.20;;;26.00;99.90;;;;;;5090064;28;20074;-60
2021/04/09 03:47:56;;;;;;;8.95;8.35;;;26.50;99.90;;;;;;5090179;28;20020;-60
2021/04/09 03:50:24;;;;;;;8.43;8.00;;;27.10;99.90;;;;;;5089929;28;20108;-61
2021/04/09 03:52:51;;;;;;;8.18;7.55;;;27.20;99.90;;;;;;5088740;28;20122;-60
2021/04/09 03:55:18;;;;;;;7.80;7.32;;;26.90;99.90;;;;;;5089965;28;20024;-60
2021/04/09 03:57:46;;;;;;;7.90;7.30;;;26.70;99.90;;;;;;5089912;28;20093;-60
2021/04/09 04:00:13;;;;;;;7.72;7.10;;;26.80;99.90;;;;;;5088411;28;20025;-60
2021/04/09 04:02:41;;;;;;;8.05;7.50;;;27.10;99.90;;;;;;5089611;28;20023;-61
2021/04/09 04:05:09;;;;;;;7.72;7.32;;;27.30;99.90;;;;;;5089662;28;20352;-61
2021/04/09 04:07:36;;;;;;;8.70;8.00;;;27.20;99.90;;;;;;5089954;28;20024;-60
2021/04/09 04:10:07;;;;;;;9.18;8.45;;;27.00;99.90;;;;;;5089848;28;20032;-61
2021/04/09 04:12:35;;;;;;;8.70;8.10;;;27.00;99.90;;;;;;5089774;28;20149;-60
2021/04/09 04:15:02;;;;;;;8.27;7.88;;;26.70;99.90;;;;;;5089703;28;20025;-60
2021/04/09 04:17:29;;;;;;;8.45;7.95;;;26.80;99.90;;;;;;5089726;28;20036;-60
2021/04/09 04:19:57;;;;;;;9.80;9.20;;;27.00;99.90;;;;;;5089641;28;20453;-60
2021/04/09 04:22:24;;;;;;;8.77;8.27;;;27.30;99.80;;;;;;5089606;28;20017;-60
2021/04/09 04:24:53;;;;;;;9.02;8.35;;;27.40;99.40;;;;;;5089555;28;20074;-60
2021/04/09 04:27:21;;;;;;;8.13;7.63;;;27.50;99.70;;;;;;5089495;28;20099;-59
2021/04/09 04:29:48;;;;;;;8.50;8.10;;;27.70;98.80;;;;;;5089313;28;20039;-60
2021/04/09 04:32:15;;;;;;;8.68;8.07;;;27.80;98.60;;;;;;5089281;28;20085;-60
2021/04/09 04:34:43;;;;;;;7.60;7.20;;;27.90;97.60;;;;;;5089233;28;20074;-59
2021/04/09 04:37:10;;;;;;;7.47;6.88;;;27.90;98.10;;;;;;5089469;28;20024;-60
2021/04/09 04:39:38;;;;;;;7.78;7.28;;;28.10;98.30;;;;;;5087539;28;20051;-60
2021/04/09 04:42:05;;;;;;;7.55;7.07;;;28.10;98.30;;;;;;5089170;28;20028;-60
2021/04/09 04:44:33;;;;;;;7.50;7.00;;;28.00;97.80;;;;;;5089153;28;20048;-61
2021/04/09 04:47:00;;;;;;;7.00;6.60;;;28.00;98.50;;;;;;5088982;28;20020;-59
2021/04/09 04:49:27;;;;;;;7.30;6.85;;;28.20;98.70;;;;;;5089010;28;20084;-60
2021/04/09 04:51:54;;;;;;;8.07;7.57;;;28.20;98.20;;;;;;5075742;28;20028;-60
2021/04/09 04:54:22;;;;;;;7.30;6.90;;;28.00;97.60;;;;;;5075416;28;20048;-60
2021/04/09 04:56:49;;;;;;;7.95;7.25;;;28.10;98.00;;;;;;5075405;28;20124;-59
2021/04/09 04:59:17;;;;;;;8.00;7.50;;;28.10;98.30;;;;;;5075601;28;20120;-59
2021/04/09 05:01:45;;;;;;;7.70;7.30;;;28.10;98.90;;;;;;5075328;28;20140;-60
2021/04/09 05:04:12;;;;;;;8.05;7.55;;;27.90;97.60;;;;;;5075171;28;20067;-59
2021/04/09 05:06:39;;;;;;;7.28;6.95;;;27.90;97.90;;;;;;5075185;28;20499;-59
2021/04/09 05:09:07;;;;;;;7.68;7.15;;;28.00;98.00;;;;;;5073665;28;20494;-59
2021/04/09 05:11:35;;;;;;;7.60;7.00;;;28.00;97.20;;;;;;5075058;28;20034;-59
2021/04/09 05:14:03;;;;;;;7.63;7.10;;;27.80;97.60;;;;;;5075086;28;20029;-59
2021/04/09 05:16:30;;;;;;;7.82;7.22;;;27.70;97.80;;;;;;5075070;28;20028;-59
2021/04/09 05:18:57;;;;;;;8.57;8.18;;;27.70;97.80;;;;;;5074829;28;20044;-60
2021/04/09 05:21:26;;;;;;;8.35;7.75;;;27.80;98.10;;;;;;5074958;28;20020;-61
2021/04/09 05:23:54;;;;;;;8.45;7.95;;;27.70;97.80;;;;;;5074865;28;20024;-59
2021/04/09 05:26:21;;;;;;;7.93;7.32;;;27.70;98.70;;;;;;5074803;28;20063;-59
2021/04/09 05:28:48;;;;;;;7.80;7.38;;;27.70;98.50;;;;;;5074811;28;20044;-60
2021/04/09 05:31:16;;;;;;;7.85;7.35;;;27.60;98.20;;;;;;5074770;28;20035;-59
2021/04/09 05:33:43;;;;;;;8.07;7.50;;;27.50;98.40;;;;;;5074881;28;20025;-60
2021/04/09 05:36:10;;;;;;;8.45;7.80;;;27.50;98.10;;;;;;5074807;28;20052;-60
2021/04/09 05:38:38;;;;;;;8.30;7.80;;;27.40;98.40;;;;;;5074291;28;20052;-60
2021/04/09 05:41:05;;;;;;;7.78;7.38;;;27.50;98.50;;;;;;5074538;28;20082;-61
2021/04/09 05:43:32;;;;;;;8.82;8.32;;;27.50;99.00;;;;;;5073412;28;20393;-60
2021/04/09 05:46:00;;;;;;;8.35;7.85;;;27.50;98.40;;;;;;5073215;28;20449;-61
2021/04/09 05:48:27;;;;;;;8.18;7.78;;;27.40;97.90;;;;;;5074397;28;20038;-60
2021/04/09 05:50:54;;;;;;;8.80;8.25;;;27.30;98.20;;;;;;5073084;28;20400;-60
2021/04/09 05:53:21;;;;;;;8.65;8.15;;;27.40;98.00;;;;;;5074269;28;20048;-61
2021/04/09 05:55:50;;;;;;;8.90;8.40;;;27.40;99.30;;;;;;5074211;28;20016;-60
2021/04/09 05:58:18;;;;;;;8.80;8.20;;;27.30;98.20;;;;;;5073855;28;20052;-60
2021/04/09 06:00:45;;;;;;;8.40;8.00;;;27.30;98.10;;;;;;5074221;28;20016;-61
2021/04/09 06:03:12;;;;;;;7.82;7.32;;;27.20;98.70;;;;;;5072879;28;20024;-61
2021/04/09 06:05:40;;;;;;;9.15;8.43;;;27.20;98.20;;;;;;5074003;28;20432;-60
2021/04/09 06:08:10;;;;;;;8.90;8.43;;;27.20;98.50;;;;;;5073992;28;20017;-60
2021/04/09 06:10:38;;;;;;;9.63;8.93;;;27.20;98.60;;;;;;5073902;28;20020;-60
2021/04/09 06:13:06;;;;;;;8.90;8.40;;;27.20;98.50;;;;;;5073812;28;20042;-60
2021/04/09 06:15:34;;;;;;;8.65;8.25;;;27.10;98.70;;;;;;5073817;28;20043;-61
2021/04/09 06:18:01;;;;;;;8.75;8.32;;;27.10;98.40;;;;;;5073881;28;20021;-59
2021/04/09 06:20:28;;;;;;;8.38;7.80;;;27.00;98.70;;;;;;5073709;28;20024;-59
2021/04/09 06:22:56;;;;;;;8.52;7.90;;;26.90;99.20;;;;;;5073643;28;20030;-60
2021/04/09 06:25:25;;;;;;;7.90;7.40;;;26.90;99.00;;;;;;5073737;28;20024;-59
2021/04/09 06:27:53;;;;;;;8.27;7.55;;;26.80;99.00;;;;;;5073835;28;20016;-59
2021/04/09 06:30:21;;;;;;;7.88;7.40;;;26.80;99.00;;;;;;5073621;28;20021;-60
2021/04/09 06:32:48;;;;;;;8.30;7.80;;;26.80;98.90;;;;;;5073532;28;20024;-61
2021/04/09 06:35:16;;;;;;;8.30;7.80;;;26.80;98.60;;;;;;5073456;28;20396;-60
2021/04/09 06:37:43;;;;;;;8.63;8.13;;;26.80;99.00;;;;;;5073607;28;20392;-60
2021/04/09 06:40:13;;;;;;;8.20;7.80;;;26.80;99.60;;;;;;5073133;28;20040;-60
2021/04/09 06:42:41;;;;;;;8.07;7.68;;;26.70;99.40;;;;;;5073355;28;20448;-60
2021/04/09 06:45:09;;;;;;;8.55;8.02;;;26.70;98.60;;;;;;5073316;28;20020;-61
2021/04/09 06:47:36;;;;;;;8.60;8.20;;;26.60;98.90;;;;;;5073326;28;20361;-60
2021/04/09 06:50:07;;;;;;;9.05;8.50;;;26.60;98.90;;;;;;5073202;28;20477;-60
2021/04/09 06:52:35;;;;;;;9.48;8.95;;;26.60;98.80;;;;;;5073207;28;20032;-60
2021/04/09 06:55:03;;;;;;;9.45;8.75;;;26.60;99.00;;;;;;5073448;28;20488;-60
2021/04/09 06:57:33;;;;;;;8.35;7.78;;;26.60;98.60;;;;;;5073099;28;20345;-60
2021/04/09 07:00:09;;;;;;;8.70;8.30;;;26.60;98.80;;;;;;5073177;28;20028;-60
2021/04/09 07:02:38;;;;;;;8.70;8.18;;;26.60;99.40;;;;;;5073610;28;20103;-60
2021/04/09 07:05:06;;;;;;;8.88;8.38;;;26.50;99.20;;;;;;5072976;28;20024;-60
2021/04/09 07:07:34;;;;;;;8.60;8.20;;;26.50;99.40;;;;;;5073016;28;20020;-61
2021/04/09 07:10:01;;;;;;;8.40;7.90;;;26.40;99.70;;;;;;5072807;28;20031;-60
2021/04/09 07:12:30;;;;;;;9.13;8.43;;;26.30;99.50;;;;;;5072962;28;20033;-60
2021/04/09 07:15:10;;;;;;;8.68;8.20;;;26.30;99.40;;;;;;5072732;28;20019;-60
2021/04/09 07:17:55;;;;;;;8.82;8.23;;;26.20;99.90;;;;;;5072947;28;20031;-59
2021/04/09 07:20:30;;;;;;;8.95;8.20;;;26.00;99.90;;;;;;5072788;28;20039;-59
2021/04/09 07:23:02;;;;;;;8.70;8.00;;;25.90;99.90;;;;;;5072721;28;20027;-60
2021/04/09 07:25:33;;;;;;;8.70;8.07;;;25.80;99.90;;;;;;5072790;28;20025;-59
2021/04/09 07:28:15;;;;;;;9.40;8.75;;;25.70;99.90;;;;;;5072431;28;20330;-60
2021/04/09 07:30:50;;;;;;;9.85;8.95;;;25.60;99.90;;;;;;5072684;28;20083;-60
2021/04/09 07:33:19;;;;;;;8.48;7.90;;;25.50;99.70;;;;;;5072527;28;20059;-60
2021/04/09 07:36:00;;;;;;;9.00;8.30;;;25.40;99.90;;;;;;5072500;28;20124;-59
2021/04/09 07:38:31;;;;;;;9.38;8.77;;;25.30;99.90;;;;;;5072320;28;20382;-60
2021/04/09 07:41:00;;;;;;;10.68;9.95;;;25.20;99.90;;;;;;5072680;28;20023;-59
2021/04/09 07:43:39;;;;;;;13.65;10.35;;;25.40;99.90;;;;;;5072568;28;20028;-59
2021/04/09 07:46:08;;;;;;;15.02;11.85;;;25.30;99.90;;;;;;5072539;28;20017;-60
2021/04/09 07:48:37;;;;;;;19.30;13.15;;;24.80;99.90;;;;;;5072721;28;20033;-60
2021/04/09 07:51:07;;;;;;;20.85;14.30;;;24.40;99.90;;;;;;5072544;28;20080;-60
2021/04/09 07:53:34;;;;;;;19.85;16.55;;;24.00;99.90;;;;;;5072332;28;20029;-60
2021/04/09 07:56:15;;;;;;;26.25;18.05;;;23.70;99.90;;;;;;5072520;28;20028;-59
2021/04/09 07:58:44;;;;;;;26.98;20.20;;;23.50;99.90;;;;;;5072356;28;20021;-60
2021/04/09 08:01:22;;;;;;;24.80;22.08;;;23.30;99.90;;;;;;5072430;28;20074;-60
2021/04/09 08:03:50;;;;;;;27.40;24.70;;;23.10;99.90;;;;;;5072311;28;20021;-59
2021/04/09 08:06:19;;;;;;;27.23;24.63;;;23.00;99.90;;;;;;5071168;28;20028;-60
2021/04/09 08:08:49;;;;;;;28.00;25.10;;;22.90;99.90;;;;;;5072308;28;20045;-59
2021/04/09 08:11:20;;;;;;;29.45;26.48;;;22.90;99.90;;;;;;5072132;28;20500;-60
2021/04/09 08:14:26;;;;;;;35.35;31.75;;;22.80;99.90;;;;;;5072090;28;20118;-60
2021/04/09 08:16:55;;;;;;;41.03;37.35;;;22.60;99.90;;;;;;5072318;28;20021;-60
2021/04/09 08:19:24;;;;;;;45.65;42.08;;;22.60;99.90;;;;;;5072115;28;20039;-59
2021/04/09 08:21:53;;;;;;;49.80;45.42;;;22.40;99.90;;;;;;5072333;28;20021;-60
2021/04/09 08:24:27;;;;;;;53.28;49.00;;;22.30;99.90;;;;;;5072247;28;20021;-60
2021/04/09 08:26:54;;;;;;;56.22;51.47;;;22.20;99.90;;;;;;5074992;28;20029;-59
2021/04/09 08:29:23;;;;;;;58.50;53.50;;;22.20;99.90;;;;;;5075822;28;20045;-60
2021/04/09 08:31:51;;;;;;;64.38;59.05;;;22.10;99.90;;;;;;5075834;28;20025;-60
2021/04/09 08:34:22;;;;;;;66.10;60.85;;;22.00;99.90;;;;;;5075889;28;20025;-60
2021/04/09 08:36:49;;;;;;;;;;;21.90;99.90;;;;;;5076386;28;20025;-60
2021/04/09 08:39:18;;;;;;;68.50;63.05;;;21.80;99.90;;;;;;5075639;28;19917;-60
2021/04/09 08:41:51;;;;;;;66.47;61.25;;;21.80;99.90;;;;;;5075645;28;20495;-61
2021/04/09 08:44:21;;;;;;;65.97;60.47;;;21.80;99.90;;;;;;5075764;28;20094;-61
2021/04/09 08:46:48;;;;;;;;;;;21.70;99.90;;;;;;5076043;28;20024;-59
2021/04/09 08:49:16;;;;;;;65.28;60.10;;;21.70;99.90;;;;;;5075506;28;19912;-59
2021/04/09 08:51:45;;;;;;;63.92;58.58;;;21.60;99.90;;;;;;5075641;28;20357;-59
2021/04/09 08:54:20;;;;;;;63.45;58.17;;;21.60;99.90;;;;;;5075464;28;20115;-59
2021/04/09 08:56:48;;;;;;;62.03;57.10;;;21.60;99.90;;;;;;5075422;28;20056;-61
2021/04/09 08:59:15;;;;;;;63.00;57.92;;;21.60;99.90;;;;;;5075392;28;20484;-60
2021/04/09 09:01:42;;;;;;;65.03;59.20;;;21.60;99.90;;;;;;5075337;28;20017;-58
2021/04/09 09:04:25;;;;;;;64.35;59.50;;;21.50;99.90;;;;;;5075135;28;20021;-60
2021/04/09 09:06:52;;;;;;;62.08;57.03;;;21.50;99.90;;;;;;5075309;28;20545;-58
2021/04/09 09:09:30;;;;;;;61.83;56.75;;;21.50;99.90;;;;;;5075219;28;20090;-60
2021/04/09 09:12:02;;;;;;;65.10;59.70;;;21.50;99.90;;;;;;5075171;28;20031;-60
2021/04/09 09:14:39;;;;;;;61.85;56.90;;;21.60;99.90;;;;;;5075190;28;20141;-59
2021/04/09 09:17:19;;;;;;;62.70;57.53;;;21.60;99.90;;;;;;5075125;28;20078;-60
2021/04/09 09:19:50;;;;;;;62.53;57.27;;;21.50;99.90;;;;;;5074931;28;20021;-60
2021/04/09 09:22:21;;;;;;;63.40;58.35;;;21.50;99.90;;;;;;5075352;28;20044;-60
2021/04/09 09:25:06;;;;;;;63.60;58.33;;;21.50;99.90;;;;;;5073738;28;20112;-58
2021/04/09 09:27:53;;;;;;;62.85;57.17;;;21.30;99.90;;;;;;5075037;28;20023;-60
2021/04/09 09:30:37;;;;;;;64.85;59.38;;;21.30;99.90;;;;;;5075030;28;20059;-59
2021/04/09 09:33:27;;;;;;;62.20;56.97;;;21.30;99.90;;;;;;5074838;28;20127;-58
2021/04/09 09:35:59;;;;;;;64.20;58.50;;;21.20;99.90;;;;;;5074836;28;20052;-59
2021/04/09 09:38:53;;;;;;;63.10;58.00;;;21.10;99.90;;;;;;5074610;28;20289;-60
2021/04/09 09:41:44;;;;;;;66.63;60.95;;;21.20;99.90;;;;;;5074906;28;20545;-59
2021/04/09 09:44:34;;;;;;;67.32;61.85;;;21.10;99.90;;;;;;5074703;28;20012;-60
2021/04/09 09:47:03;;;;;;;63.70;58.60;;;21.10;99.90;;;;;;5074579;28;20027;-60
2021/04/09 09:49:36;;;;;;;64.88;59.28;;;21.10;99.90;;;;;;5074859;28;20028;-61
2021/04/09 09:52:25;;;;;;;64.97;60.13;;;21.00;99.90;;;;;;5074513;28;20392;-59
2021/04/09 09:55:49;;;;;;;66.50;60.80;;;20.90;99.90;;;;;;5074469;28;20357;-58
2021/04/09 09:58:26;;;;;;;65.15;59.92;;;21.00;99.90;;;;;;5012477;28;20025;-59
2021/04/09 10:01:07;;;;;;;65.88;60.45;;;21.00;99.90;;;;;;5074361;28;20024;-60
2021/04/09 10:03:38;;;;;;;66.50;61.03;;;21.00;99.90;;;;;;5074055;28;20024;-61
2021/04/09 10:06:13;;;;;;;65.25;59.55;;;20.90;99.90;;;;;;5074332;28;20028;-60
2021/04/09 10:08:43;;;;;;;62.80;58.17;;;21.00;99.90;;;;;;5074169;28;20050;-60
2021/04/09 10:11:18;;;;;;;66.00;60.20;;;21.00;99.90;;;;;;5074560;28;20032;-60
2021/04/09 10:13:50;;;;;;;62.63;57.92;;;20.90;99.90;;;;;;5074387;28;20041;-58
2021/04/09 10:16:28;;;;;;;65.35;60.05;;;20.80;99.90;;;;;;5074169;28;20440;-59
2021/04/09 10:18:58;;;;;;;61.85;57.03;;;20.80;99.90;;;;;;5073873;28;20569;-60
2021/04/09 10:21:29;;;;;;;65.32;60.08;;;20.80;99.90;;;;;;5073988;28;20058;-60
2021/04/09 10:24:12;;;;;;;;;;;20.70;99.90;;;;;;5074344;28;20395;-59
2021/04/09 10:26:50;;;;;;;65.68;59.70;;;20.70;99.90;;;;;;5073776;28;19904;-59
2021/04/09 10:29:35;;;;;;;67.18;61.67;;;20.80;99.90;;;;;;5073832;28;20103;-59
2021/04/09 10:32:07;;;;;;;65.00;59.85;;;20.70;99.90;;;;;;5073876;28;20025;-60
2021/04/09 10:34:35;;;;;;;65.95;60.50;;;20.70;99.90;;;;;;5073652;28;20051;-60
2021/04/09 10:37:04;;;;;;;63.08;58.17;;;20.70;99.90;;;;;;5073467;28;20020;-60
2021/04/09 10:39:31;;;;;;;62.08;57.40;;;20.70;99.90;;;;;;5073304;28;20043;-60
2021/04/09 10:42:03;;;;;;;63.42;58.13;;;20.70;99.90;;;;;;5073638;28;20150;-59
2021/04/09 10:44:32;;;;;;;63.97;59.15;;;20.70;99.90;;;;;;5073504;28;20423;-60
2021/04/09 10:47:03;;;;;;;63.95;58.97;;;20.70;99.90;;;;;;5073367;28;20469;-61
2021/04/09 10:49:36;;;;;;;63.88;59.00;;;20.60;99.90;;;;;;5072920;28;20017;-59
2021/04/09 10:52:12;;;;;;;62.83;58.22;;;20.60;99.90;;;;;;5073348;28;20040;-60
2021/04/09 10:54:43;;;;;;;62.63;57.90;;;20.60;99.90;;;;;;5073275;28;20025;-60
2021/04/09 10:57:13;;;;;;;62.97;57.97;;;20.60;99.90;;;;;;5073261;28;20016;-59
2021/04/09 10:59:45;;;;;;;63.60;58.70;;;20.60;99.90;;;;;;5073176;28;20401;-59
2021/04/09 11:02:23;;;;;;;62.55;57.08;;;20.50;99.90;;;;;;5073483;28;20429;-59
2021/04/09 11:05:01;;;;;;;61.15;56.05;;;20.60;99.90;;;;;;5073230;28;20031;-58
2021/04/09 11:07:48;;;;;;;61.65;56.53;;;20.60;99.90;;;;;;5073185;28;20021;-59
2021/04/09 11:10:35;;;;;;;59.08;54.45;;;20.60;99.90;;;;;;5073502;28;20032;-59
2021/04/09 11:13:03;;;;;;;59.08;54.40;;;20.60;99.90;;;;;;5073217;28;20016;-60
2021/04/09 11:15:48;;;;;;;58.88;54.40;;;20.60;99.90;;;;;;5073128;28;20501;-59
2021/04/09 11:18:16;;;;;;;58.00;53.20;;;20.70;99.90;;;;;;5073186;28;20036;-59
2021/04/09 11:20:45;;;;;;;58.28;53.55;;;20.70;99.90;;;;;;5072844;28;20029;-59
2021/04/09 11:23:15;;;;;;;56.67;52.25;;;20.70;99.90;;;;;;5073026;28;20051;-60
2021/04/09 11:25:44;;;;;;;56.65;52.20;;;20.70;99.90;;;;;;5073117;28;20055;-60
2021/04/09 11:28:29;;;;;;;48.65;44.28;;;20.60;99.90;;;;;;5072977;28;20028;-60
2021/04/09 11:31:08;;;;;;;51.83;37.80;;;20.60;99.90;;;;;;5073004;28;20020;-60
2021/04/09 11:33:41;;;;;;;62.78;57.65;;;20.50;99.90;;;;;;5073226;28;20043;-59
2021/04/09 11:36:41;;;;;;;62.75;57.70;;;20.50;99.90;;;;;;5072886;28;20035;-59
2021/04/09 11:39:17;;;;;;;64.97;59.95;;;20.40;99.90;;;;;;5072615;28;20044;-61
2021/04/09 11:42:01;;;;;;;61.45;56.85;;;20.40;99.90;;;;;;5072861;28;20048;-59
2021/04/09 11:44:36;;;;;;;62.20;57.60;;;20.40;99.90;;;;;;5072755;28;20030;-61
2021/04/09 11:47:25;;;;;;;62.45;57.63;;;20.30;99.90;;;;;;5072795;28;20024;-60
2021/04/09 11:50:17;;;;;;;64.25;59.35;;;20.30;99.90;;;;;;5072844;28;20033;-60
2021/04/09 11:52:55;;;;;;;65.15;60.05;;;20.40;99.90;;;;;;5072786;28;20016;-60
2021/04/09 11:55:25;;;;;;;62.15;57.47;;;20.40;99.90;;;;;;5072982;28;20040;-60
2021/04/09 11:57:52;;;;;;;;;;;20.50;99.90;;;;;;5073172;28;20025;-60
2021/04/09 12:00:24;;;;;;;62.67;58.00;;;20.40;99.90;;;;;;5073081;28;19912;-60
2021/04/09 12:03:17;;;;;;;60.85;56.00;;;20.40;99.90;;;;;;5076827;28;20025;-60
2021/04/09 12:05:45;;;;;;;61.30;56.75;;;20.40;99.90;;;;;;5074218;28;20511;-60
2021/04/09 12:08:12;;;;;;;60.42;56.03;;;20.40;99.90;;;;;;5076573;28;20020;-60
2021/04/09 12:10:40;;;;;;;58.35;53.97;;;20.40;99.90;;;;;;5076561;28;20385;-60
2021/04/09 12:13:07;;;;;;;59.03;54.30;;;20.40;99.90;;;;;;5076420;28;20028;-60
2021/04/09 12:15:34;;;;;;;58.20;53.22;;;20.30;99.90;;;;;;5075162;28;20032;-60
2021/04/09 12:18:02;;;;;;;57.88;53.35;;;20.30;99.90;;;;;;5076555;28;20016;-59
2021/04/09 12:20:29;;;;;;;57.28;52.55;;;20.20;99.90;;;;;;5074906;28;20111;-60
2021/04/09 12:22:57;;;;;;;57.72;53.17;;;20.10;99.90;;;;;;5076228;28;20484;-60
2021/04/09 12:25:24;;;;;;;56.58;52.15;;;20.10;99.90;;;;;;5076232;28;20031;-60
2021/04/09 12:27:52;;;;;;;54.53;49.80;;;20.10;99.90;;;;;;5076273;28;20063;-60
2021/04/09 12:30:20;;;;;;;53.75;49.50;;;20.00;99.90;;;;;;5076194;28;20031;-60
2021/04/09 12:32:47;;;;;;;56.38;51.95;;;20.00;99.90;;;;;;5076152;28;20020;-61
2021/04/09 12:35:15;;;;;;;56.95;52.85;;;20.00;99.90;;;;;;5076326;28;20485;-60
2021/04/09 12:37:42;;;;;;;56.90;52.65;;;20.00;99.90;;;;;;5075974;28;20024;-60
2021/04/09 12:40:10;;;;;;;54.28;50.10;;;20.10;99.90;;;;;;5075718;28;20485;-60
2021/04/09 12:42:37;;;;;;;53.70;49.58;;;20.20;99.90;;;;;;5075981;28;20403;-60
2021/04/09 12:45:06;;;;;;;57.95;53.35;;;20.20;99.90;;;;;;5075827;28;20031;-60
2021/04/09 12:47:33;;;;;;;55.53;51.13;;;20.30;99.90;;;;;;5075886;28;20099;-60
2021/04/09 12:50:01;;;;;;;57.42;52.80;;;20.30;99.90;;;;;;5075714;28;20382;-61
2021/04/09 12:52:28;;;;;;;56.47;51.80;;;20.20;99.90;;;;;;5075744;28;20028;-60
2021/04/09 12:54:55;;;;;;;53.67;49.35;;;20.20;99.90;;;;;;5075697;28;20103;-62
2021/04/09 12:57:22;;;;;;;54.20;49.70;;;20.20;99.90;;;;;;5075719;28;20044;-60
2021/04/09 12:59:50;;;;;;;54.28;50.05;;;20.20;99.90;;;;;;5075659;28;20486;-61
2021/04/09 13:02:17;;;;;;;54.90;50.35;;;20.20;99.90;;;;;;5075601;28;20515;-60